Time;durP1;ratioP1;P1;durP2;ratioP2;P2;SDS_P1;SDS_P2;PMS_P1;PMS_P2;Temp;Humidity;BMP_temperature;BMP_pressure;BME280_temperature;BME280_humidity;BME280_pressure;Samples;Min_cycle;Max_cycle;Signal;HPM_P1;HPM_P2
2022/01/17 00:01:29;;;;;;;15.88;2.20;;;6.20;99.90;;;;;;5035363;28;20055;-73
2022/01/17 00:03:55;;;;;;;12.40;3.38;;;6.20;99.90;;;;;;5053924;28;20040;-73
2022/01/17 00:06:21;;;;;;;12.07;2.85;;;6.20;99.90;;;;;;5037604;28;20101;-73
2022/01/17 00:08:49;;;;;;;13.23;2.08;;;6.10;99.90;;;;;;5054010;28;20424;-73
2022/01/17 00:11:16;;;;;;;15.27;3.40;;;6.10;99.90;;;;;;5054126;28;20505;-72
2022/01/17 00:13:42;;;;;;;17.20;2.40;;;6.10;99.90;;;;;;5053965;28;20041;-73
2022/01/17 00:16:12;;;;;;;15.35;2.88;;;6.10;99.90;;;;;;5037318;28;20263;-73
2022/01/17 00:21:05;;;;;;;14.15;2.15;;;6.00;99.90;;;;;;5070631;28;20060;-73
2022/01/17 00:23:31;;;;;;;14.52;2.58;;;6.00;99.90;;;;;;5074224;28;20044;-73
2022/01/17 00:25:57;;;;;;;15.68;2.67;;;5.90;99.90;;;;;;5057376;28;20123;-73
2022/01/17 00:28:23;;;;;;;13.80;2.85;;;5.90;99.90;;;;;;5057071;28;20043;-73
2022/01/17 00:30:49;;;;;;;12.35;2.40;;;5.90;99.90;;;;;;5054659;28;20119;-73
2022/01/17 00:33:15;;;;;;;10.18;2.10;;;5.90;99.90;;;;;;5074069;28;20128;-73
2022/01/17 00:35:41;;;;;;;13.30;1.90;;;5.80;99.90;;;;;;5057074;28;20601;-73
2022/01/17 00:38:07;;;;;;;14.43;2.05;;;5.80;99.90;;;;;;5057435;28;20043;-73
2022/01/17 00:40:32;;;;;;;12.45;2.80;;;5.80;99.90;;;;;;5074000;28;20403;-73
2022/01/17 00:42:58;;;;;;;14.20;2.08;;;5.70;99.90;;;;;;5073697;28;20145;-73
2022/01/17 00:45:27;;;;;;;15.73;2.63;;;5.70;99.90;;;;;;5057158;28;20051;-74
2022/01/17 00:47:58;;;;;;;14.05;2.88;;;5.60;99.90;;;;;;5057017;28;20036;-73
2022/01/17 00:50:25;;;;;;;13.80;2.33;;;5.50;99.90;;;;;;5073701;28;20036;-72
2022/01/17 00:52:52;;;;;;;16.30;2.63;;;5.40;99.90;;;;;;5057080;28;20060;-73
2022/01/17 00:55:17;;;;;;;15.65;2.65;;;5.40;99.90;;;;;;5056833;28;20036;-73
2022/01/17 00:57:43;;;;;;;20.02;3.45;;;5.30;99.90;;;;;;5056887;28;20036;-72
2022/01/17 01:00:10;;;;;;;17.30;3.00;;;5.30;99.90;;;;;;5073462;28;20051;-73
2022/01/17 01:02:37;;;;;;;11.05;2.58;;;5.20;99.90;;;;;;5054487;28;20157;-73
2022/01/17 01:05:05;;;;;;;11.30;2.70;;;5.20;99.90;;;;;;5073457;28;20075;-73
2022/01/17 01:07:31;;;;;;;13.55;2.47;;;5.10;99.90;;;;;;5057044;28;20094;-73
2022/01/17 01:12:25;;;;;;;17.02;3.65;;;4.90;99.90;;;;;;5073496;28;20799;-73
2022/01/17 01:14:51;;;;;;;14.45;2.55;;;4.90;99.90;;;;;;5056782;28;20114;-73
2022/01/17 01:17:32;;;;;;;17.60;2.72;;;4.90;99.90;;;;;;5056684;28;20051;-73
2022/01/17 01:20:12;;;;;;;17.17;2.55;;;4.80;99.90;;;;;;5056540;28;20048;-72
2022/01/17 01:28:06;;;;;;;16.80;2.55;;;4.70;99.90;;;;;;5073180;28;20075;-73
2022/01/17 01:30:34;;;;;;;13.63;2.28;;;4.70;99.90;;;;;;5073441;28;20083;-73
2022/01/17 01:33:00;;;;;;;12.63;2.50;;;4.70;99.90;;;;;;5058171;28;20082;-73
2022/01/17 01:35:29;;;;;;;13.05;3.28;;;4.80;99.90;;;;;;5077085;28;20434;-73
2022/01/17 01:37:55;;;;;;;17.10;4.78;;;4.70;99.90;;;;;;5076786;28;20335;-72
2022/01/17 01:40:21;;;;;;;11.30;2.60;;;4.70;99.90;;;;;;5076679;28;20043;-73
2022/01/17 01:42:51;;;;;;;17.63;3.47;;;4.70;99.90;;;;;;5076717;28;20040;-73
2022/01/17 01:45:17;;;;;;;19.50;2.85;;;4.70;99.90;;;;;;5059964;28;20132;-72
2022/01/17 01:47:44;;;;;;;13.25;3.28;;;4.70;99.90;;;;;;5059960;28;20090;-73
2022/01/17 01:50:11;;;;;;;19.17;2.97;;;4.70;99.90;;;;;;5076391;28;20127;-73
2022/01/17 01:52:37;;;;;;;21.90;3.05;;;4.70;99.90;;;;;;5059954;28;20051;-72
2022/01/17 01:55:05;;;;;;;15.63;2.85;;;4.80;99.90;;;;;;5059744;28;20048;-73
2022/01/17 01:57:30;;;;;;;12.27;2.22;;;4.80;99.90;;;;;;5060012;28;20408;-72
2022/01/17 01:59:56;;;;;;;18.98;2.60;;;4.70;99.90;;;;;;5060196;28;20055;-72
2022/01/17 02:02:22;;;;;;;19.00;2.65;;;4.70;99.90;;;;;;5073964;28;20079;-72
2022/01/17 02:04:47;;;;;;;13.38;2.30;;;4.60;99.90;;;;;;5059854;28;20040;-72
2022/01/17 02:07:13;;;;;;;13.52;3.75;;;4.60;99.90;;;;;;5059700;28;20384;-73
2022/01/17 02:09:40;;;;;;;17.75;2.47;;;4.60;99.90;;;;;;5076219;28;20044;-73
2022/01/17 02:12:08;;;;;;;15.20;2.28;;;4.60;99.90;;;;;;5059414;28;20051;-72
2022/01/17 02:14:34;;;;;;;17.42;2.83;;;4.60;99.90;;;;;;5076076;28;20035;-73
2022/01/17 02:17:04;;;;;;;14.10;2.78;;;4.60;99.90;;;;;;5076353;28;20058;-73
2022/01/17 02:19:31;;;;;;;10.52;2.17;;;4.60;99.90;;;;;;5075897;28;20135;-73
2022/01/17 02:21:57;;;;;;;13.13;2.80;;;4.60;99.90;;;;;;5075898;28;20044;-73
2022/01/17 02:24:23;;;;;;;16.42;2.67;;;4.50;99.90;;;;;;5059297;28;20093;-73
2022/01/17 02:26:51;;;;;;;15.13;2.20;;;4.50;99.90;;;;;;5075984;28;20568;-72
2022/01/17 02:29:17;;;;;;;20.35;3.70;;;4.50;99.90;;;;;;5076108;28;20044;-73
2022/01/17 02:31:44;;;;;;;19.23;2.72;;;4.50;99.90;;;;;;5056919;28;20556;-73
2022/01/17 02:34:11;;;;;;;18.80;2.58;;;4.40;99.90;;;;;;5059194;28;20044;-72
2022/01/17 02:36:37;;;;;;;19.30;3.00;;;4.40;99.90;;;;;;5059230;28;20051;-73
2022/01/17 02:39:03;;;;;;;12.18;2.88;;;4.40;99.90;;;;;;5075877;28;20480;-73
2022/01/17 02:41:32;;;;;;;10.45;2.20;;;4.40;99.90;;;;;;5058958;28;20040;-72
2022/01/17 02:44:00;;;;;;;16.70;2.92;;;4.40;99.90;;;;;;5058746;28;20044;-73
2022/01/17 02:46:26;;;;;;;11.40;2.33;;;4.40;99.90;;;;;;5075417;28;20032;-73
2022/01/17 02:48:57;;;;;;;12.40;2.97;;;4.40;99.90;;;;;;5058824;28;20040;-73
2022/01/17 02:51:23;;;;;;;24.55;3.42;;;4.40;99.90;;;;;;5059039;28;20403;-73
2022/01/17 02:53:49;;;;;;;9.10;2.08;;;4.30;99.90;;;;;;5075361;28;20044;-73
2022/01/17 02:56:15;;;;;;;10.05;2.25;;;4.30;99.90;;;;;;5075305;28;20040;-73
2022/01/17 02:58:42;;;;;;;9.98;2.47;;;4.30;99.90;;;;;;5058661;28;20035;-73
2022/01/17 03:01:14;;;;;;;12.65;2.40;;;4.30;99.90;;;;;;5072984;28;20043;-72
2022/01/17 03:03:42;;;;;;;18.35;2.60;;;4.30;99.90;;;;;;5075520;28;20047;-73
2022/01/17 03:06:09;;;;;;;13.20;2.35;;;4.20;99.90;;;;;;5075303;28;20071;-73
2022/01/17 03:08:35;;;;;;;15.90;2.60;;;4.20;99.90;;;;;;5058599;28;20036;-73
2022/01/17 03:11:05;;;;;;;11.05;2.20;;;4.20;99.90;;;;;;5058990;28;20036;-73
2022/01/17 03:13:35;;;;;;;10.60;2.47;;;4.20;99.90;;;;;;5075386;28;20075;-73
2022/01/17 03:16:07;;;;;;;11.68;2.53;;;4.30;99.90;;;;;;5075135;28;20050;-73
2022/01/17 03:18:39;;;;;;;14.23;2.53;;;4.30;99.90;;;;;;5074901;28;20040;-73
2022/01/17 03:21:06;;;;;;;15.60;2.78;;;4.30;99.90;;;;;;5074721;28;20095;-73
2022/01/17 03:23:33;;;;;;;15.60;3.45;;;4.30;99.90;;;;;;5058060;28;20044;-72
2022/01/17 03:25:58;;;;;;;29.38;4.90;;;4.40;99.90;;;;;;5074973;28;20487;-73
2022/01/17 03:28:25;;;;;;;13.32;2.58;;;4.40;99.90;;;;;;5074586;28;20047;-72
2022/01/17 03:30:52;;;;;;;15.20;2.50;;;4.50;99.90;;;;;;5072378;28;20115;-73
2022/01/17 03:33:18;;;;;;;7.55;2.47;;;4.50;99.90;;;;;;5057966;28;20126;-73
2022/01/17 03:35:45;;;;;;;15.32;2.95;;;4.60;99.90;;;;;;5058076;28;20040;-72
2022/01/17 03:38:13;;;;;;;15.48;2.20;;;4.70;99.90;;;;;;5057863;28;20043;-72
2022/01/17 03:40:40;;;;;;;16.92;2.47;;;4.80;99.90;;;;;;5058047;28;20388;-72
2022/01/17 03:43:07;;;;;;;16.88;2.38;;;4.80;99.90;;;;;;5057724;28;20066;-72
2022/01/17 03:45:32;;;;;;;15.55;2.70;;;4.90;99.90;;;;;;5074602;28;20046;-73
2022/01/17 03:47:59;;;;;;;14.57;2.33;;;5.00;99.90;;;;;;5074408;28;20044;-72
2022/01/17 03:50:26;;;;;;;18.90;3.47;;;4.90;99.90;;;;;;5074312;28;20091;-72
2022/01/17 03:52:52;;;;;;;14.68;2.72;;;4.90;99.90;;;;;;5074306;28;20544;-72
2022/01/17 03:55:20;;;;;;;12.15;3.00;;;5.00;99.90;;;;;;5073779;28;20047;-72
2022/01/17 03:57:46;;;;;;;10.98;2.55;;;5.00;99.90;;;;;;5057399;28;20076;-72
2022/01/17 04:00:19;;;;;;;10.98;2.80;;;5.00;99.90;;;;;;5074248;28;20082;-72
2022/01/17 04:02:45;;;;;;;20.33;3.65;;;5.00;99.90;;;;;;5071750;28;20487;-72
2022/01/17 04:05:11;;;;;;;20.00;2.97;;;4.90;99.90;;;;;;5074497;28;20399;-72
2022/01/17 04:07:37;;;;;;;11.95;2.00;;;4.90;99.90;;;;;;5057619;28;20123;-73
2022/01/17 04:10:04;;;;;;;29.08;4.88;;;4.90;99.90;;;;;;5074229;28;20036;-73
2022/01/17 04:12:29;;;;;;;13.32;2.20;;;4.90;99.90;;;;;;5057263;28;20048;-73
2022/01/17 04:14:56;;;;;;;15.65;3.20;;;4.90;99.90;;;;;;5074062;28;20097;-73
2022/01/17 04:17:29;;;;;;;12.73;2.30;;;4.90;99.90;;;;;;5074150;28;20048;-73
2022/01/17 04:20:06;;;;;;;13.85;3.83;;;4.80;99.90;;;;;;5073878;28;20063;-73
2022/01/17 04:22:36;;;;;;;14.73;2.92;;;4.90;99.90;;;;;;5074057;28;20101;-73
2022/01/17 04:25:03;;;;;;;12.00;2.60;;;4.90;99.90;;;;;;5074046;28;20117;-72
2022/01/17 04:27:29;;;;;;;17.92;2.78;;;4.80;99.90;;;;;;5074068;28;20449;-73
2022/01/17 04:29:54;;;;;;;13.63;3.25;;;4.90;99.90;;;;;;5057237;28;20123;-72
2022/01/17 04:32:20;;;;;;;13.30;2.95;;;4.90;99.90;;;;;;5071331;28;20044;-72
2022/01/17 04:34:46;;;;;;;12.85;2.33;;;4.90;99.90;;;;;;5073871;28;20043;-73
2022/01/17 04:37:12;;;;;;;15.43;3.35;;;4.90;99.90;;;;;;5073641;28;20047;-73
2022/01/17 04:39:38;;;;;;;14.32;2.90;;;5.00;99.90;;;;;;5073791;28;20040;-73
2022/01/17 04:42:11;;;;;;;10.82;1.70;;;5.00;99.90;;;;;;5056981;28;20058;-73
2022/01/17 04:47:21;;;;;;;12.63;2.58;;;5.00;99.90;;;;;;5073559;28;20040;-73
2022/01/17 04:49:47;;;;;;;17.05;3.47;;;5.10;99.90;;;;;;5056956;28;20043;-72
2022/01/17 04:52:14;;;;;;;13.07;2.50;;;5.10;99.90;;;;;;5073860;28;20123;-72
2022/01/17 04:54:45;;;;;;;13.48;2.42;;;5.20;99.90;;;;;;5056904;28;20040;-72
2022/01/17 04:57:12;;;;;;;16.05;3.13;;;5.20;99.90;;;;;;5057044;28;20567;-72
2022/01/17 04:59:39;;;;;;;12.07;2.50;;;5.30;99.90;;;;;;5073674;28;20044;-72
2022/01/17 05:02:06;;;;;;;14.65;2.80;;;5.30;99.90;;;;;;5071298;28;20202;-72
2022/01/17 05:04:32;;;;;;;14.27;3.08;;;5.40;99.90;;;;;;5057182;28;20387;-72
2022/01/17 05:06:58;;;;;;;20.33;3.22;;;5.40;99.90;;;;;;5075660;28;20039;-72
2022/01/17 05:09:24;;;;;;;16.35;3.28;;;5.50;99.90;;;;;;5060653;28;20119;-72
2022/01/17 05:11:50;;;;;;;17.48;2.95;;;5.60;99.90;;;;;;5077513;28;20127;-72
2022/01/17 05:14:16;;;;;;;16.90;3.08;;;5.60;99.90;;;;;;5060475;28;20036;-72
2022/01/17 05:16:45;;;;;;;17.15;2.95;;;5.70;99.90;;;;;;5077066;28;20051;-72
2022/01/17 05:21:55;;;;;;;21.02;4.35;;;5.80;99.90;;;;;;5077059;28;20048;-72
2022/01/17 05:24:21;;;;;;;14.18;4.05;;;5.90;99.90;;;;;;5060362;28;20040;-72
2022/01/17 05:26:47;;;;;;;15.07;3.10;;;6.00;99.90;;;;;;5060438;28;20051;-72
2022/01/17 05:29:13;;;;;;;17.20;3.72;;;6.00;99.90;;;;;;5060314;28;20040;-72
2022/01/17 05:31:39;;;;;;;14.55;3.13;;;6.00;99.90;;;;;;5054479;28;20507;-72
2022/01/17 05:34:05;;;;;;;21.05;4.43;;;6.00;99.90;;;;;;5040473;28;20080;-72
2022/01/17 05:36:31;;;;;;;14.43;4.13;;;6.00;99.90;;;;;;5056870;28;20165;-72
2022/01/17 05:38:56;;;;;;;20.23;4.28;;;6.00;99.90;;;;;;5056766;28;20074;-72
2022/01/17 05:41:22;;;;;;;11.57;4.07;;;6.00;99.90;;;;;;5056711;28;20047;-73
2022/01/17 05:43:48;;;;;;;18.48;4.30;;;5.90;99.90;;;;;;5056848;28;20102;-72
2022/01/17 05:46:14;;;;;;;19.77;4.90;;;5.90;99.90;;;;;;5056602;28;20559;-72
2022/01/17 05:48:40;;;;;;;18.25;5.75;;;5.90;99.90;;;;;;5056948;28;20032;-72
2022/01/17 05:51:06;;;;;;;14.40;4.93;;;5.90;99.90;;;;;;5040239;28;20042;-72
2022/01/17 05:53:31;;;;;;;23.35;5.53;;;5.90;99.90;;;;;;5039856;28;20455;-73
2022/01/17 05:55:57;;;;;;;19.90;4.68;;;5.90;99.90;;;;;;5039886;28;20040;-73
2022/01/17 05:58:23;;;;;;;22.23;5.50;;;5.90;99.90;;;;;;5056294;28;20120;-73
2022/01/17 06:00:49;;;;;;;20.88;6.15;;;5.90;99.90;;;;;;5037482;28;20049;-73
2022/01/17 06:03:15;;;;;;;14.80;5.65;;;5.90;99.90;;;;;;5056186;28;20037;-73
2022/01/17 06:05:41;;;;;;;13.90;5.45;;;6.00;99.90;;;;;;5039714;28;20052;-72
2022/01/17 06:08:07;;;;;;;25.65;6.72;;;5.90;99.90;;;;;;5056184;28;20113;-72
2022/01/17 06:10:33;;;;;;;16.20;5.93;;;5.90;99.90;;;;;;5039828;28;20088;-72
2022/01/17 06:13:01;;;;;;;19.75;6.82;;;5.90;99.90;;;;;;5056187;28;20041;-73
2022/01/17 06:15:27;;;;;;;25.70;6.55;;;6.00;99.90;;;;;;5039652;28;20041;-73
2022/01/17 06:17:53;;;;;;;14.60;5.32;;;6.00;99.90;;;;;;5055469;28;20040;-73
2022/01/17 06:20:19;;;;;;;19.90;6.97;;;6.00;99.90;;;;;;5066770;28;20056;-72
2022/01/17 06:22:45;;;;;;;24.73;7.00;;;6.00;99.90;;;;;;5076058;28;20066;-73
2022/01/17 06:25:11;;;;;;;16.63;6.07;;;6.00;99.90;;;;;;5059432;28;20048;-72
2022/01/17 06:27:37;;;;;;;21.17;7.57;;;6.00;99.90;;;;;;5059186;28;20036;-72
2022/01/17 06:30:04;;;;;;;20.58;7.10;;;6.10;99.90;;;;;;5059678;28;20047;-72
2022/01/17 06:32:31;;;;;;;14.50;7.43;;;6.10;99.90;;;;;;5058812;28;20080;-73
2022/01/17 06:34:57;;;;;;;24.70;9.40;;;6.10;99.90;;;;;;5077206;28;20109;-72
2022/01/17 06:37:24;;;;;;;19.55;7.47;;;6.10;99.90;;;;;;5077204;28;20119;-73
2022/01/17 06:39:51;;;;;;;19.15;7.95;;;6.10;99.90;;;;;;5076652;28;20126;-73
2022/01/17 06:42:17;;;;;;;19.73;6.82;;;6.10;99.90;;;;;;5076617;28;20044;-73
2022/01/17 06:44:43;;;;;;;24.33;6.57;;;6.10;99.90;;;;;;5076926;28;20050;-72
2022/01/17 06:47:09;;;;;;;20.13;8.13;;;6.10;99.90;;;;;;5076733;28;20404;-72
2022/01/17 06:49:35;;;;;;;20.02;7.70;;;6.10;99.90;;;;;;5076571;28;20047;-73
2022/01/17 06:52:00;;;;;;;24.40;7.32;;;6.10;99.90;;;;;;5076512;28;20083;-72
2022/01/17 06:54:26;;;;;;;29.40;10.35;;;6.10;99.90;;;;;;5076313;28;20044;-72
2022/01/17 06:56:52;;;;;;;21.98;7.60;;;6.10;99.90;;;;;;5076253;28;20093;-72
2022/01/17 06:59:18;;;;;;;21.77;6.38;;;6.20;99.90;;;;;;5075943;28;20052;-72
2022/01/17 07:01:44;;;;;;;18.45;6.63;;;6.20;99.90;;;;;;5072819;28;20036;-72
2022/01/17 07:04:09;;;;;;;27.10;6.65;;;6.20;99.90;;;;;;5058782;28;20136;-72
2022/01/17 07:06:37;;;;;;;19.15;6.72;;;6.20;99.90;;;;;;5075390;28;20173;-71
2022/01/17 07:09:05;;;;;;;17.80;6.07;;;6.20;99.90;;;;;;5058282;28;20046;-72
2022/01/17 07:11:38;;;;;;;21.35;6.18;;;6.20;99.90;;;;;;5058665;28;20059;-72
2022/01/17 07:14:09;;;;;;;30.15;7.35;;;6.30;99.90;;;;;;5058395;28;20131;-72
2022/01/17 07:16:36;;;;;;;20.95;6.70;;;6.30;99.90;;;;;;5075273;28;20395;-72
2022/01/17 07:19:02;;;;;;;25.83;7.00;;;6.30;99.90;;;;;;5058008;28;20036;-72
2022/01/17 07:21:28;;;;;;;28.70;6.13;;;6.30;99.90;;;;;;5058218;28;20040;-72
2022/01/17 07:23:54;;;;;;;30.40;7.55;;;6.30;99.90;;;;;;5074720;28;20036;-73
2022/01/17 07:26:21;;;;;;;19.70;5.95;;;6.30;99.90;;;;;;5058745;28;20105;-71
2022/01/17 07:28:47;;;;;;;20.73;7.35;;;6.30;99.90;;;;;;5060457;28;20049;-72
2022/01/17 07:31:16;;;;;;;18.52;5.65;;;6.30;99.90;;;;;;5036007;28;20036;-72
2022/01/17 07:33:42;;;;;;;25.45;5.60;;;6.30;99.90;;;;;;5038195;28;20040;-72
2022/01/17 07:36:08;;;;;;;22.83;6.10;;;6.30;99.90;;;;;;5037932;28;20048;-72
2022/01/17 07:38:36;;;;;;;25.52;5.55;;;6.30;99.90;;;;;;5054350;28;20093;-72
2022/01/17 07:41:03;;;;;;;26.45;5.90;;;6.30;99.90;;;;;;5054628;28;20396;-72
2022/01/17 07:43:29;;;;;;;22.70;5.85;;;6.30;99.90;;;;;;5037767;28;20497;-72
2022/01/17 07:46:04;;;;;;;22.45;4.63;;;6.30;99.90;;;;;;5054610;28;20097;-72
2022/01/17 07:48:57;;;;;;;24.17;4.90;;;6.30;99.90;;;;;;5037687;28;20094;-72
2022/01/17 07:51:27;;;;;;;18.73;4.97;;;6.30;99.90;;;;;;5038019;28;20443;-72
2022/01/17 07:53:54;;;;;;;19.55;3.95;;;6.30;99.90;;;;;;5054211;28;20115;-72
2022/01/17 07:56:20;;;;;;;20.30;6.60;;;6.30;99.90;;;;;;5054180;28;20037;-71
2022/01/17 07:58:46;;;;;;;25.48;4.85;;;6.30;99.90;;;;;;5054645;28;20044;-72
2022/01/17 08:01:12;;;;;;;19.38;4.57;;;6.30;99.90;;;;;;5035025;28;20499;-72
2022/01/17 08:03:38;;;;;;;22.10;4.30;;;6.40;99.90;;;;;;5054090;28;20044;-72
2022/01/17 08:06:04;;;;;;;20.70;4.68;;;6.40;99.90;;;;;;5054530;28;20051;-72
2022/01/17 08:08:30;;;;;;;19.58;3.78;;;6.40;99.90;;;;;;5054089;28;20075;-72
2022/01/17 08:10:56;;;;;;;22.73;4.30;;;6.40;99.90;;;;;;5054270;28;20107;-71
2022/01/17 08:13:21;;;;;;;30.27;5.22;;;6.50;99.90;;;;;;5037809;28;20028;-70
2022/01/17 08:15:48;;;;;;;21.45;3.90;;;6.50;99.90;;;;;;5054391;28;20484;-72
2022/01/17 08:18:14;;;;;;;24.45;5.03;;;6.50;99.90;;;;;;5037596;28;20048;-72
2022/01/17 08:20:41;;;;;;;18.00;3.40;;;6.60;99.90;;;;;;5067372;28;20060;-72
2022/01/17 08:23:08;;;;;;;17.70;4.00;;;6.60;99.90;;;;;;5074123;28;20052;-72
2022/01/17 08:25:34;;;;;;;19.05;4.30;;;6.70;99.90;;;;;;5057471;28;20040;-72
2022/01/17 08:28:00;;;;;;;19.10;4.13;;;6.80;99.90;;;;;;5057304;28;20043;-73
2022/01/17 08:30:26;;;;;;;20.63;4.30;;;6.80;99.90;;;;;;5054970;28;20040;-73
2022/01/17 08:32:52;;;;;;;20.85;4.78;;;6.90;99.90;;;;;;5054775;28;20036;-73
2022/01/17 08:35:21;;;;;;;23.38;4.35;;;7.00;99.90;;;;;;5056715;28;20036;-74
2022/01/17 08:37:47;;;;;;;26.60;4.07;;;7.00;99.90;;;;;;5074031;28;20032;-73
2022/01/17 08:40:14;;;;;;;21.05;4.07;;;7.10;99.90;;;;;;5057880;28;20565;-73
2022/01/17 08:42:40;;;;;;;22.23;4.45;;;7.10;99.90;;;;;;5077753;28;20495;-74
2022/01/17 08:45:08;;;;;;;19.90;4.15;;;7.20;99.90;;;;;;5077791;28;20123;-73
2022/01/17 08:47:34;;;;;;;23.10;4.97;;;7.20;99.90;;;;;;5061046;28;20047;-73
2022/01/17 08:50:00;;;;;;;29.50;4.60;;;7.20;99.90;;;;;;5077680;28;20044;-73
2022/01/17 08:52:26;;;;;;;21.67;4.45;;;7.30;99.90;;;;;;5077839;28;20122;-73
2022/01/17 08:54:53;;;;;;;27.55;4.35;;;7.30;99.90;;;;;;5077614;28;20036;-74
2022/01/17 08:57:19;;;;;;;25.50;4.70;;;7.40;99.90;;;;;;5077692;28;20055;-74
2022/01/17 08:59:45;;;;;;;22.52;4.15;;;7.40;99.90;;;;;;5077550;28;20050;-75
2022/01/17 09:02:12;;;;;;;24.48;5.32;;;7.40;99.90;;;;;;5075399;28;20392;-74
2022/01/17 09:04:41;;;;;;;30.90;5.65;;;7.50;99.90;;;;;;5077840;28;20036;-76
2022/01/17 09:07:09;;;;;;;29.38;4.70;;;7.50;99.90;;;;;;5062461;28;20122;-75
2022/01/17 09:09:35;;;;;;;24.75;4.57;;;7.60;99.90;;;;;;5062794;28;20042;-77
2022/01/17 09:12:01;;;;;;;28.52;4.60;;;7.60;99.90;;;;;;5062883;28;20050;-75
2022/01/17 09:14:27;;;;;;;33.10;6.70;;;7.60;99.90;;;;;;5061696;28;20492;-76
2022/01/17 09:16:53;;;;;;;26.00;6.80;;;7.70;99.90;;;;;;5063318;28;20073;-76
2022/01/17 09:19:19;;;;;;;29.27;4.63;;;7.70;99.90;;;;;;5077843;28;20044;-76
2022/01/17 09:21:45;;;;;;;23.63;4.80;;;7.80;99.90;;;;;;5043592;28;20045;-74
2022/01/17 09:24:11;;;;;;;24.83;5.53;;;7.80;99.90;;;;;;5044129;28;20218;-76
2022/01/17 09:26:37;;;;;;;30.75;5.75;;;7.80;99.90;;;;;;5043342;28;20044;-77
2022/01/17 09:29:05;;;;;;;23.27;5.40;;;7.80;99.90;;;;;;5043188;28;20037;-77
2022/01/17 09:31:31;;;;;;;31.17;7.00;;;7.90;99.90;;;;;;5040656;28;20044;-77
2022/01/17 09:33:57;;;;;;;29.75;6.53;;;7.90;99.90;;;;;;5060410;28;20040;-78
2022/01/17 09:36:25;;;;;;;24.13;4.68;;;8.00;99.90;;;;;;5060656;28;20036;-78
2022/01/17 09:38:52;;;;;;;28.77;5.20;;;8.00;99.90;;;;;;5042688;28;20380;-77
2022/01/17 09:41:18;;;;;;;27.10;4.45;;;8.00;99.90;;;;;;5040018;28;20044;-76
2022/01/17 09:43:44;;;;;;;34.40;4.40;;;8.00;99.90;;;;;;5040044;28;20583;-76
2022/01/17 09:46:10;;;;;;;33.95;4.65;;;8.00;99.90;;;;;;5056697;28;20119;-76
2022/01/17 09:48:39;;;;;;;27.05;5.68;;;8.00;99.90;;;;;;5040131;28;20400;-77
2022/01/17 09:51:38;;;;;;;28.70;4.65;;;8.00;99.90;;;;;;5040158;28;20032;-76
2022/01/17 09:54:03;;;;;;;27.45;5.13;;;8.10;99.90;;;;;;5055954;28;20047;-78
2022/01/17 09:56:30;;;;;;;28.02;4.75;;;8.10;99.90;;;;;;5047008;28;20043;-78
2022/01/17 09:58:57;;;;;;;31.15;4.78;;;8.10;99.90;;;;;;5072880;28;20036;-78
2022/01/17 10:01:24;;;;;;;29.90;4.80;;;8.20;99.90;;;;;;5053918;28;20040;-77
2022/01/17 10:03:52;;;;;;;27.90;6.13;;;8.30;99.90;;;;;;5073011;28;20040;-77
2022/01/17 10:06:19;;;;;;;25.98;6.35;;;8.40;99.90;;;;;;5056559;28;20040;-78
2022/01/17 10:08:45;;;;;;;36.97;7.07;;;8.40;99.90;;;;;;5056255;28;20037;-77
2022/01/17 10:11:15;;;;;;;31.77;6.15;;;8.50;99.90;;;;;;5056439;28;20127;-76
2022/01/17 10:13:45;;;;;;;29.40;5.43;;;8.50;99.90;;;;;;5072994;28;20545;-76
2022/01/17 10:16:19;;;;;;;32.15;7.47;;;8.50;99.90;;;;;;5056314;28;20055;-77
2022/01/17 10:18:48;;;;;;;39.53;6.82;;;8.60;99.90;;;;;;5072997;28;20472;-76
2022/01/17 10:21:27;;;;;;;33.83;5.32;;;8.60;99.90;;;;;;5074125;28;20471;-76
2022/01/17 10:35:21;;;;;;;35.28;6.28;;;8.90;99.90;;;;;;5056078;28;20065;-75
2022/01/17 10:37:57;;;;;;;33.30;5.80;;;9.00;99.90;;;;;;5040482;28;20040;-76
2022/01/17 10:40:24;;;;;;;29.45;5.50;;;9.10;99.90;;;;;;5055652;28;20101;-76
2022/01/17 10:42:50;;;;;;;23.73;5.28;;;9.10;99.90;;;;;;5055579;28;20039;-76
2022/01/17 10:45:23;;;;;;;29.40;6.40;;;9.30;99.90;;;;;;5038889;28;20048;-76
2022/01/17 10:47:51;;;;;;;26.45;5.32;;;9.60;99.90;;;;;;5055512;28;20098;-76
2022/01/17 10:50:32;;;;;;;28.25;5.38;;;9.70;99.90;;;;;;5055554;28;20127;-76
2022/01/17 10:53:01;;;;;;;31.02;5.65;;;10.00;99.90;;;;;;5055350;28;20072;-76
2022/01/17 10:55:33;;;;;;;26.88;7.80;;;10.50;99.90;;;;;;5055727;28;20452;-76
2022/01/17 10:58:11;;;;;;;32.25;5.95;;;10.70;99.90;;;;;;5038652;28;20048;-75
2022/01/17 11:00:46;;;;;;;35.65;6.18;;;10.60;99.90;;;;;;5038988;28;20040;-76
2022/01/17 11:03:13;;;;;;;30.40;5.97;;;10.30;99.90;;;;;;5052957;28;20045;-76
2022/01/17 11:05:42;;;;;;;32.35;6.00;;;10.00;99.90;;;;;;5052806;28;20485;-75
2022/01/17 11:08:08;;;;;;;25.95;5.65;;;9.80;99.90;;;;;;5058680;28;20079;-75
2022/01/17 11:10:45;;;;;;;33.50;6.82;;;9.70;99.90;;;;;;5074835;28;20122;-75
2022/01/17 11:13:17;;;;;;;25.98;5.82;;;9.60;99.90;;;;;;5074883;28;20036;-75
2022/01/17 11:15:46;;;;;;;30.80;7.03;;;9.60;99.90;;;;;;5058323;28;20384;-75
2022/01/17 11:18:22;;;;;;;37.58;6.13;;;9.60;99.90;;;;;;5074964;28;20040;-75
2022/01/17 11:20:51;;;;;;;31.95;6.40;;;9.60;99.90;;;;;;5071291;28;20066;-75
2022/01/17 11:23:21;;;;;;;33.85;7.05;;;9.60;99.90;;;;;;5044999;28;20048;-76
2022/01/17 11:25:52;;;;;;;28.37;6.23;;;9.80;99.90;;;;;;5054680;28;20120;-75
2022/01/17 11:28:21;;;;;;;35.40;6.90;;;10.00;99.90;;;;;;5047048;28;20040;-74
2022/01/17 11:30:48;;;;;;;33.03;7.30;;;10.60;99.90;;;;;;5057670;28;20119;-75
2022/01/17 11:33:14;;;;;;;28.90;7.00;;;11.30;99.90;;;;;;5056512;28;20109;-75
2022/01/17 11:35:42;;;;;;;34.22;6.30;;;11.70;99.90;;;;;;5074455;28;20565;-75
2022/01/17 11:38:20;;;;;;;34.38;7.63;;;12.10;99.90;;;;;;5058071;28;20093;-75
2022/01/17 11:40:46;;;;;;;35.42;7.18;;;12.50;99.90;;;;;;5074361;28;20503;-74
2022/01/17 11:43:37;;;;;;;32.30;7.35;;;12.70;99.90;;;;;;5074213;28;20079;-75
2022/01/17 11:46:17;;;;;;;39.72;8.55;;;13.10;99.90;;;;;;5048216;28;20044;-74
2022/01/17 11:49:11;;;;;;;33.25;7.55;;;13.20;99.90;;;;;;5057834;28;20071;-75
2022/01/17 11:51:45;;;;;;;31.40;7.85;;;12.70;99.90;;;;;;5054600;28;20082;-74
2022/01/17 11:54:20;;;;;;;40.92;7.95;;;12.40;99.90;;;;;;5057448;28;20492;-74
2022/01/17 11:56:59;;;;;;;36.58;6.88;;;12.10;99.90;;;;;;5074149;28;20514;-73
2022/01/17 11:59:28;;;;;;;28.48;7.20;;;11.70;99.90;;;;;;5047747;28;20115;-74
2022/01/17 12:02:31;;;;;;;37.00;7.35;;;11.40;99.90;;;;;;5051478;28;20044;-74
2022/01/17 12:05:11;;;;;;;34.50;7.63;;;11.40;99.90;;;;;;5037713;28;20131;-74
2022/01/17 12:07:52;;;;;;;41.97;8.90;;;11.40;99.90;;;;;;5053870;28;20044;-74
2022/01/17 12:10:21;;;;;;;31.33;7.05;;;11.70;99.90;;;;;;5053921;28;20041;-74
2022/01/17 12:13:34;;;;;;;39.10;7.47;;;12.00;99.90;;;;;;5037312;28;20070;-74
2022/01/17 12:16:31;;;;;;;34.47;7.03;;;11.80;99.90;;;;;;5053335;28;20274;-73
2022/01/17 12:18:56;;;;;;;33.45;6.93;;;11.40;99.90;;;;;;5053789;28;20047;-74
2022/01/17 12:21:23;;;;;;;37.22;6.45;;;11.10;99.90;;;;;;5053004;28;20053;-74
2022/01/17 12:23:49;;;;;;;34.25;7.97;;;10.90;99.90;;;;;;5053553;28;20151;-74
2022/01/17 12:26:33;;;;;;;31.88;6.35;;;10.70;99.90;;;;;;5070836;28;20044;-74
2022/01/17 12:28:59;;;;;;;34.47;6.65;;;10.50;99.90;;;;;;5042137;28;20484;-73
2022/01/17 12:31:38;;;;;;;46.80;8.57;;;10.40;99.90;;;;;;5051604;28;20055;-74
2022/01/17 12:34:23;;;;;;;36.97;8.80;;;10.30;99.90;;;;;;5036998;28;20094;-75
2022/01/17 12:36:51;;;;;;;38.88;8.05;;;10.20;99.90;;;;;;5037150;28;20182;-74
2022/01/17 12:39:25;;;;;;;35.55;7.07;;;10.10;99.90;;;;;;5037150;28;20040;-74
2022/01/17 12:41:53;;;;;;;38.58;8.07;;;10.10;99.90;;;;;;5036984;28;20168;-74
2022/01/17 12:44:24;;;;;;;33.40;7.20;;;10.10;99.90;;;;;;5037403;28;20090;-75
2022/01/17 12:46:54;;;;;;;45.15;8.88;;;10.00;99.90;;;;;;5037149;28;20068;-75
2022/01/17 12:49:20;;;;;;;48.42;7.68;;;9.90;99.90;;;;;;5053536;28;20040;-74
2022/01/17 12:51:48;;;;;;;40.78;8.98;;;9.90;99.90;;;;;;5053811;28;20577;-74
2022/01/17 12:54:18;;;;;;;38.15;8.05;;;9.80;99.90;;;;;;5037034;28;20028;-75
2022/01/17 12:56:46;;;;;;;41.17;8.77;;;9.80;99.90;;;;;;5037161;28;20028;-73
2022/01/17 12:59:13;;;;;;;34.78;8.48;;;9.80;99.90;;;;;;5037065;28;20063;-74
2022/01/17 13:01:50;;;;;;;39.70;8.05;;;9.80;99.90;;;;;;5034422;28;20048;-73
2022/01/17 13:04:18;;;;;;;45.40;9.38;;;9.80;99.90;;;;;;5036950;28;20072;-73
2022/01/17 13:06:46;;;;;;;27.98;7.32;;;9.80;99.90;;;;;;5037166;28;20041;-71
2022/01/17 13:09:20;;;;;;;44.40;9.77;;;9.80;99.90;;;;;;5036810;28;20036;-72
2022/01/17 13:11:48;;;;;;;44.97;9.30;;;9.90;99.90;;;;;;5053639;28;20070;-72
2022/01/17 13:14:20;;;;;;;44.47;9.10;;;9.90;99.90;;;;;;5053385;28;20128;-73
2022/01/17 13:16:48;;;;;;;43.58;8.07;;;9.90;99.90;;;;;;5037291;28;20041;-72
2022/01/17 13:19:15;;;;;;;44.17;9.13;;;9.80;99.90;;;;;;5038106;28;20075;-72